• Join FlightAware (Why Join?)
  • Login
  • US Flag 
01:43PM EDT


 

Airport Tracker/Info


-or-


 

Live Flight TrackerFlight Track Log ✈ SWA2088 ✈ 13-Apr-2013 ✈ KEWR - KDEN

Flight Track Log - Related Links

Times and Time Zones

All times are in EDT time to prevent confusion due to time zone crossing. See the SWA2088 flight status page for this flight to view local times or setup timezone preferences in your user account.

Time Position Orientation Groundspeed Altitude Reporting Facility
EDT Latitude Longitude Course Direction KTS MPH feet Rate Location/Type
03:49PM 40.6500 -74.1833 246° West 175 201 1,900  Level New York TRACON
03:50PM 40.6333 -74.2333 246° West 214 246 3,900 2,340 Climbing New York TRACON
03:51PM 40.6667 -74.3333 294° West 256 295 6,600 3,180 Climbing New York TRACON
03:52PM 40.6833 -74.4167 285° West 249 287 10,700 2,880 Climbing New York TRACON
03:54PM 40.7453 -74.6003 294° West 313 360 14,700 2,460 Climbing New York Center
03:55PM 40.7775 -74.7036 292° West 340 391 17,700 2,820 Climbing New York Center
03:56PM 40.8150 -74.8236 292° West 346 398 20,500 2,640 Climbing New York Center
03:57PM 40.8525 -74.9464 292° West 351 404 23,000 2,280 Climbing New York Center
03:58PM 40.8897 -75.0694 292° West 356 410 25,100 1,860 Climbing New York Center
03:59PM 40.9097 -75.2025 281° West 362 417 26,800 1,800 Climbing New York Center
04:00PM 40.8797 -75.3322 253° West 362 417 28,700 2,160 Climbing New York Center
04:01PM 40.8519 -75.4594 254° West 367 422 31,200 1,620 Climbing New York Center
04:02PM 40.8217 -75.5917 253° West 362 417 32,000 360 Climbing New York Center
04:03PM 40.7917 -75.7131 252° West 351 404 32,000  Level New York Center
04:04PM 40.7636 -75.8342 253° West 351 404 32,000  Level New York Center
04:05PM 40.7725 -75.9611 275° West 351 404 32,000 660 Level New York Center
04:06PM 40.7856 -76.0908 278° West 351 404 33,400 1,260 Climbing New York Center
04:07PM 40.7933 -76.1928 276° West 351 404 34,600 1,200 Climbing New York Center
04:08PM 40.8092 -76.3475 278° West 351 404 35,900 1,020 Climbing New York Center
04:09PM 40.8239 -76.4778 279° West 351 404 36,700 960 Climbing New York Center
04:10PM 40.8358 -76.6133 277° West 356 410 37,900 600 Climbing New York Center
04:11PM 40.8481 -76.7461 277° West 362 417 38,000  Climbing New York Center
04:12PM 40.8600 -76.8789 277° West 362 417 38,000  Level New York Center
04:13PM 40.8700 -77.0086 276° West 367 422 38,000  Level New York Center
04:14PM 40.8819 -77.1361 277° West 367 422 38,000  Level New York Center
04:15PM 40.8933 -77.2689 277° West 367 422 38,000  Level New York Center
04:16PM 40.9067 -77.4047 277° West 367 422 38,000  Level New York Center
04:17PM 40.9181 -77.5378 277° West 373 429 38,000  Level New York Center
04:19PM 40.9411 -77.8369 276° West 374 430 38,000 -180 Level Cleveland Center
04:20PM 40.9525 -77.9714 276° West 374 430 37,500 -600 Descending Cleveland Center
04:21PM 40.9639 -78.1056 276° West 368 423 36,800 -720 Descending Cleveland Center
04:22PM 40.9750 -78.2400 276° West 368 423 36,100 -420 Descending Cleveland Center
04:23PM 40.9878 -78.3578 278° West 368 423 36,000 -60 Descending Cleveland Center
04:24PM 40.9967 -78.4922 275° West 368 423 36,000  Level Cleveland Center
04:25PM 41.0053 -78.6242 275° West 368 423 36,000  Level Cleveland Center
04:26PM 41.0178 -78.7614 277° West 368 423 36,000  Level Cleveland Center
04:27PM 41.0261 -78.8931 275° West 368 423 36,000  Level Cleveland Center
04:28PM 41.0364 -79.0306 276° West 368 423 36,000  Level Cleveland Center
04:29PM 41.0444 -79.1681 274° West 368 423 36,000  Level Cleveland Center
04:30PM 41.0522 -79.3000 275° West 368 423 36,000  Level Cleveland Center
04:31PM 41.0619 -79.4319 276° West 368 423 36,000  Level Cleveland Center
04:32PM 41.0717 -79.5642 276° West 368 423 36,000  Level Cleveland Center
04:33PM 41.0811 -79.6933 276° West 368 423 36,000  Level Cleveland Center
04:34PM 41.0883 -79.8256 274° West 368 423 36,000  Level Cleveland Center
04:35PM 41.0972 -79.9550 275° West 368 423 36,000  Level Cleveland Center
04:36PM 41.1042 -80.0844 274° West 368 423 36,000  Level Cleveland Center
04:37PM 41.1108 -80.2139 274° West 368 423 36,000  Level Cleveland Center
04:38PM 41.1197 -80.3572 275° West 368 423 36,000  Level Cleveland Center
04:39PM 41.1283 -80.4894 275° West 368 423 36,000  Level Cleveland Center
04:40PM 41.1344 -80.6189 274° West 368 423 36,000  Level Cleveland Center
04:41PM 41.1428 -80.7514 275° West 368 423 36,000  Level Cleveland Center
04:42PM 41.1486 -80.8808 273° West 363 418 36,000  Level Cleveland Center
04:43PM 41.1567 -81.0106 275° West 368 423 36,000  Level Cleveland Center
04:44PM 41.1644 -81.1458 274° West 368 423 36,000  Level Cleveland Center
04:45PM 41.1700 -81.2756 273° West 368 423 36,000  Level Cleveland Center
04:46PM 41.1753 -81.3914 274° West 363 418 36,000  Level Cleveland Center
04:47PM 41.1847 -81.5350 275° West 363 418 36,000  Level Cleveland Center
04:48PM 41.1919 -81.6647 274° West 358 412 36,000  Level Cleveland Center
04:49PM 41.1969 -81.7944 273° West 358 412 36,000  Level Cleveland Center
04:50PM 41.2036 -81.9272 274° West 358 412 36,000  Level Cleveland Center
04:51PM 41.2083 -82.0597 273° West 363 418 36,000  Level Cleveland Center
04:52PM 41.2128 -82.1978 272° West 375 432 36,000  Level Cleveland Center
04:53PM 41.2189 -82.3333 273° West 375 432 36,000  Level Cleveland Center
04:54PM 41.2253 -82.4658 274° West 375 432 36,000  Level Cleveland Center
04:55PM 41.2294 -82.5903 273° West 375 432 36,000  Level Cleveland Center
04:56PM 41.2353 -82.7286 273° West 381 438 36,000  Level Cleveland Center
04:57PM 41.2408 -82.8697 273° West 387 445 36,000  Level Cleveland Center
04:58PM 41.2464 -83.0078 273° West 382 440 36,000  Level Cleveland Center
04:59PM 41.2494 -83.1489 272° West 387 445 36,000  Level Cleveland Center
05:00PM 41.2542 -83.3011 272° West 381 438 36,000  Level Cleveland Center
05:01PM 41.2592 -83.4422 273° West 386 444 36,000  Level Cleveland Center
05:02PM 41.2639 -83.5833 273° West 386 444 36,000  Level Cleveland Center
05:03PM 41.2686 -83.7217 273° West 386 444 36,000 780 Level Cleveland Center
05:05PM 41.2727 -83.9480 271° West  Level FlightAware Approximate
05:05PM 41.2800 -84.0108 271° West 375 432 38,600  Level Chicago Center
05:06PM 41.2839 -84.1514 272° West 378 435 39,000 540 Climbing Chicago Center
05:07PM 41.2881 -84.2947 272° West 387 445 39,800 480 Climbing Chicago Center
05:08PM 41.2892 -84.4378 271° West 389 448 40,000 60 Climbing Chicago Center
05:09PM 41.2925 -84.5783 272° West 383 441 40,000  Level Chicago Center
05:10PM 41.2950 -84.7189 271° West 381 438 40,000  Level Chicago Center
05:11PM 41.2994 -84.8892 272° West 383 441 40,000  Level Chicago Center
05:12PM 41.3022 -85.0322 272° West 385 443 40,000  Level Chicago Center
05:13PM 41.3050 -85.1758 272° West 386 444 40,000  Level Chicago Center
05:14PM 41.3072 -85.3214 271° West 390 449 40,000  Level Chicago Center
05:15PM 41.3089 -85.4692 271° West 394 453 40,000  Level Chicago Center
05:16PM 41.3111 -85.6167 271° West 395 455 40,000  Level Chicago Center
05:17PM 41.3125 -85.7642 271° West 397 457 40,000  Level Chicago Center
05:18PM 41.3139 -85.9122 271° West 398 458 40,000  Level Chicago Center
05:19PM 41.3153 -86.0594 271° West 397 457 40,000  Level Chicago Center
05:20PM 41.3172 -86.2050 271° West 395 455 40,000  Level Chicago Center
05:21PM 41.3183 -86.3794 271° West 393 452 40,000 -60 Level Chicago Center
05:22PM 41.3186 -86.5236 270° West 391 450 39,900 -420 Descending Chicago Center
05:24PM 41.3203 -86.6664 271° West 388 447 39,200 -780 Descending Chicago Center
05:25PM 41.3206 -86.8219 270° West 387 445 38,400 -600 Descending Chicago Center
05:26PM 41.3200 -86.9667 270° West 391 450 38,000 -240 Descending Chicago Center
05:27PM 41.3217 -87.1103 271° West 390 449 38,000  Level Chicago Center
05:28PM 41.3206 -87.2556 269° West 394 453 38,000  Level Chicago Center
05:29PM 41.3206 -87.4014 270° West 396 456 38,000  Level Chicago Center
05:30PM 41.3211 -87.5494 270° West 400 460 38,000  Level Chicago Center
05:31PM 41.3208 -87.6953 270° West 399 459 38,000  Level Chicago Center
05:32PM 41.3203 -87.8442 270° West 401 461 38,000  Level Chicago Center
05:33PM 41.3197 -88.0233 270° West 399 459 38,000  Level Chicago Center
05:34PM 41.3167 -88.1747 269° West 402 463 38,000  Level Chicago Center
05:35PM 41.3158 -88.3239 270° West 400 460 38,000  Level Chicago Center
05:36PM 41.3139 -88.4719 269° West 402 463 38,000  Level Chicago Center
05:37PM 41.3122 -88.6200 269° West 403 464 38,000  Level Chicago Center
05:38PM 41.3094 -88.7669 269° West 401 461 38,000  Level Chicago Center
05:39PM 41.3078 -88.9164 269° West 405 466 38,000  Level Chicago Center
05:40PM 41.3047 -89.0644 268° West 404 465 38,000  Level Chicago Center
05:41PM 41.3036 -89.2364 270° West 407 468 38,000  Level Chicago Center
05:42PM 41.3019 -89.3853 269° West 405 466 38,000  Level Chicago Center
05:43PM 41.2981 -89.5325 268° West 401 461 38,000  Level Chicago Center
05:44PM 41.2953 -89.6792 269° West 399 459 38,000  Level Chicago Center
05:45PM 41.2914 -89.8261 268° West 400 460 38,000  Level Chicago Center
05:46PM 41.2883 -89.9725 268° West 399 459 38,000  Level Chicago Center
05:47PM 41.2839 -90.1469 268° West 397 457 38,000  Level Chicago Center
05:48PM 41.2806 -90.2928 268° West 397 457 38,000  Level Chicago Center
05:49PM 41.2778 -90.4361 269° West 392 451 38,000  Level Chicago Center
05:50PM 41.2728 -90.5803 267° West 392 451 38,000  Level Chicago Center
05:51PM 41.2667 -90.7264 267° West 397 457 38,000  Level Chicago Center
05:52PM 41.2636 -90.8661 268° West 384 442 38,000  Level Chicago Center
05:53PM 41.2578 -91.0058 267° West 380 437 38,000  Level Chicago Center
05:54PM 41.2519 -91.1725 267° West 378 435 38,000  Level Chicago Center
05:55PM 41.2475 -91.3111 268° West 377 434 38,000  Level Chicago Center
05:56PM 41.2417 -91.4508 267° West 380 437 38,000  Level Chicago Center
05:57PM 41.2369 -91.5928 268° West 383 441 38,000  Level Chicago Center
05:58PM 41.2308 -91.7506 267° West 385 443 38,000  Level Chicago Center
05:59PM 41.2256 -91.8917 267° West 387 445 38,000  Level Chicago Center
06:00PM 41.2189 -92.0322 266° West 387 445 38,000  Level Chicago Center
06:02PM 41.2136 -92.1742 267° West 388 447 38,000  Level Chicago Center
06:03PM 41.2067 -92.3178 266° West 393 452 38,000  Level Chicago Center
06:04PM 41.2003 -92.4633 267° West 399 459 38,000  Level Chicago Center
06:05PM 41.1922 -92.6394 267° West 403 464 38,000  Level Chicago Center
06:05PM 41.1914 -92.6686 268° West 399 459 38,000  Level Minneapolis Center
06:06PM 41.1828 -92.8153 266° West 401 461 38,000  Level Minneapolis Center
06:07PM 41.1750 -92.9639 266° West 403 464 38,000  Level Minneapolis Center
06:08PM 41.1686 -93.1081 267° West 401 461 38,000  Level Minneapolis Center
06:09PM 41.1600 -93.2567 266° West 405 466 38,000  Level Minneapolis Center
06:10PM 41.1511 -93.4306 266° West 401 461 38,000  Level Minneapolis Center
06:11PM 41.1442 -93.5742 266° West 396 456 38,000  Level Minneapolis Center
06:12PM 41.1369 -93.7183 266° West 395 455 38,000  Level Minneapolis Center
06:13PM 41.1283 -93.8647 266° West 399 459 38,000  Level Minneapolis Center
06:14PM 41.1197 -94.0111 266° West 401 461 38,000  Level Minneapolis Center
06:15PM 41.1108 -94.1575 265° West 402 463 38,000  Level Minneapolis Center
06:16PM 41.1014 -94.3042 265° West 402 463 38,000  Level Minneapolis Center
06:17PM 41.0914 -94.4808 266° West 402 463 38,000  Level Minneapolis Center
06:18PM 41.0817 -94.6261 265° West 404 465 38,000  Level Minneapolis Center
06:19PM 41.0714 -94.7736 265° West 402 463 38,000  Level Minneapolis Center
06:20PM 41.0614 -94.9217 265° West 403 464 38,000  Level Minneapolis Center
06:21PM 41.0514 -95.0739 265° West 409 471 38,000  Level Minneapolis Center
06:22PM 41.0397 -95.2244 264° West 412 474 38,000  Level Minneapolis Center
06:23PM 41.0297 -95.3753 265° West 411 473 38,000  Level Minneapolis Center
06:24PM 41.0181 -95.5258 264° West 411 473 38,000  Level Minneapolis Center
06:25PM 41.0075 -95.6758 265° West 409 471 38,000  Level Minneapolis Center
06:26PM 40.9961 -95.8300 264° West 414 476 38,000  Level Minneapolis Center
06:27PM 40.9836 -95.9817 264° West 412 474 38,000  Level Minneapolis Center
06:28PM 40.9708 -96.1581 265° West 402 463 38,000  Level Minneapolis Center
06:29PM 40.9600 -96.3025 264° West 395 455 38,000  Level Minneapolis Center
06:30PM 40.9475 -96.4458 263° West 392 451 38,000  Level Minneapolis Center
06:31PM 40.9358 -96.5894 264° West 391 450 38,000  Level Minneapolis Center
06:32PM 40.9244 -96.7322 264° West 390 449 38,000  Level Minneapolis Center
06:33PM 40.9008 -96.8731 258° West 391 450 38,000  Level Minneapolis Center
06:34PM 40.8736 -97.0167 256° West 399 459 38,000  Level Minneapolis Center
06:35PM 40.8478 -97.1594 257° West 400 460 38,000  Level Minneapolis Center
06:36PM 40.8208 -97.3031 256° West 401 461 38,000  Level Minneapolis Center
06:37PM 40.7928 -97.4550 256° West 402 463 38,000  Level Minneapolis Center
06:39PM 40.7658 -97.5975 256° West 400 460 38,000  Level Minneapolis Center
06:40PM 40.7389 -97.7408 256° West 401 461 38,000  Level Minneapolis Center
06:41PM 40.7100 -97.8836 255° West 402 463 38,000  Level Minneapolis Center
06:42PM 40.6839 -98.0242 256° West 396 456 38,000  Level Minneapolis Center
06:43PM 40.6569 -98.1625 256° West 392 451 38,000  Level Minneapolis Center
06:44PM 40.6297 -98.3022 256° West 392 451 38,000  Level Minneapolis Center
06:45PM 40.6081 -98.4714 260° West 390 449 38,000  Level Minneapolis Center
06:46PM 40.6244 -98.6439 277° West 391 450 38,000  Level Minneapolis Center
06:47PM 40.6364 -98.7872 276° West 391 450 38,000  Level Minneapolis Center
06:48PM 40.6497 -98.9306 277° West 392 451 38,000  Level Minneapolis Center
06:49PM 40.6625 -99.0753 277° West 393 452 38,000  Level Minneapolis Center
06:50PM 40.6711 -99.1906 276° West 394 453 38,000  Level Denver Center
06:51PM 40.6836 -99.3356 277° West 396 456 38,000  Level Denver Center
06:52PM 40.6950 -99.4811 276° West 397 457 38,000  Level Denver Center
06:53PM 40.7075 -99.6286 276° West 402 463 38,000  Level Denver Center
06:54PM 40.7189 -99.7753 276° West 401 461 38,000  Level Denver Center
06:55PM 40.7319 -99.9436 276° West 407 468 38,000  Level Denver Center
06:56PM 40.7433 -100.0856 276° West 409 471 38,000  Level Denver Center
06:57PM 40.7542 -100.2272 276° West 407 468 38,000  Level Denver Center
06:58PM 40.7672 -100.3958 276° West 412 474 38,000  Level Denver Center
06:59PM 40.7778 -100.5386 276° West 411 473 38,000  Level Denver Center
07:00PM 40.7794 -100.7036 271° West 420 483 38,000  Level Denver Center
07:01PM 40.7539 -100.8539 257° West 406 467 38,000  Level Denver Center
07:02PM 40.7308 -100.9956 258° West 410 472 38,000  Level Denver Center
07:03PM 40.7072 -101.1372 258° West 411 473 38,000 -480 Level Denver Center
07:04PM 40.6825 -101.2772 257° West 411 473 37,100 -1,320 Descending Denver Center
07:05PM 40.6556 -101.4347 257° West 395 455 35,400 -2,160 Descending Denver Center
07:06PM 40.6297 -101.5831 257° West 375 432 32,700 -3,180 Descending Denver Center
07:07PM 40.6056 -101.7150 256° West 387 445 28,900 -2,340 Descending Denver Center
07:08PM 40.5803 -101.8536 257° West 405 466 28,000 -480 Descending Denver Center
07:09PM 40.5508 -102.0136 256° West 403 464 28,000  Level Denver Center
07:10PM 40.5253 -102.1483 256° West 398 458 28,000  Level Denver Center
07:11PM 40.4964 -102.3050 256° West 395 455 28,000 -300 Level Denver Center
07:12PM 40.4711 -102.4378 256° West 392 451 27,500 -480 Descending Denver Center
07:13PM 40.4486 -102.5658 257° West 378 435 27,100 -600 Descending Denver Center
07:14PM 40.4208 -102.7081 256° West 371 427 26,400 -540 Descending Denver Center
07:15PM 40.3972 -102.8389 257° West 366 421 26,000 -240 Descending Denver Center
07:16PM 40.3719 -102.9675 256° West 363 418 26,000  Level Denver Center
07:17PM 40.3478 -103.0967 256° West 360 414 26,000  Level Denver Center
07:18PM 40.3231 -103.2269 256° West 365 420 26,000 -420 Level Denver Center
07:19PM 40.2981 -103.3567 256° West 367 422 25,200 -1,560 Descending Denver Center
07:20PM 40.2733 -103.4831 256° West 357 411 22,900 -2,400 Descending Denver Center
07:21PM 40.2442 -103.6247 255° West 343 395 20,400 -2,220 Descending Denver Center
07:23PM 40.2219 -103.7442 256° West 341 392 18,400 -2,340 Descending Denver Center
07:24PM 40.1978 -103.8594 255° West 330 380 15,700 -2,400 Descending Denver Center
07:25PM 40.1439 -103.9506 232° Southwest 317 365 13,600 -1,620 Descending Denver Center
07:26PM 40.0853 -104.0392 229° Southwest 299 344 12,500 -1,380 Descending Denver Center
07:27PM 40.0344 -104.1172 230° Southwest 282 325 10,800 -1,260 Descending Denver Center
07:28PM 39.9828 -104.1958 229° Southwest 282 325 10,000 -900 Descending Denver Center
07:29PM 39.9264 -104.2808 229° Southwest 288 331 9,000 -540 Descending Denver Center
07:30PM 39.8803 -104.3503 229° Southwest 254 292 9,000 -480 Level Denver Center
07:31PM 39.8756 -104.4297 266° West 231 266 8,100 -1,080 Descending Denver Center
07:32PM 39.8833 -104.5167 277° West 192 221 6,800 -1,020 Descending Denver TRACON
07:33PM 39.8833 -104.5667 270° West 151 174 6,000 -840 Descending Denver TRACON
07:34PM 39.8833 -104.6167 270° West 147 169 5,300 -360 Descending Denver TRACON
07:35PM 39.8778 -104.6503 258° West 107 123 5,400 60 Climbing Denver Center
07:37PM 39.8617 -104.6732 180° South  Level Estimated
07:44PM 39.8617 -104.6732 North  Level Estimated